createdAt,value
2023-01-29T00:00:45.809Z,10.90
2023-01-29T00:03:34.281Z,11.00
2023-01-29T00:06:23.664Z,11.00
2023-01-29T00:09:12.941Z,10.90
2023-01-29T00:12:01.189Z,11.00
2023-01-29T00:14:51.003Z,10.90
2023-01-29T00:17:39.336Z,10.90
2023-01-29T00:20:27.699Z,10.90
2023-01-29T00:23:16.538Z,10.90
2023-01-29T00:26:04.898Z,11.00
2023-01-29T00:28:53.274Z,10.90
2023-01-29T00:31:46.140Z,10.90
2023-01-29T00:34:34.616Z,10.90
2023-01-29T00:37:22.867Z,11.00
2023-01-29T00:40:12.162Z,10.90
2023-01-29T00:43:17.656Z,10.90
2023-01-29T00:46:07.656Z,10.90
2023-01-29T00:48:57.629Z,10.90
2023-01-29T00:52:07.608Z,10.90
2023-01-29T00:54:57.814Z,11.00
2023-01-29T00:57:46.099Z,10.90
2023-01-29T01:00:34.572Z,11.00
2023-01-29T01:03:22.077Z,11.00
2023-01-29T01:06:12.442Z,10.90
2023-01-29T01:09:18.169Z,10.90
2023-01-29T01:12:06.965Z,10.90
2023-01-29T01:14:55.350Z,10.90
2023-01-29T01:17:43.700Z,10.90
2023-01-29T01:20:34.667Z,10.90
2023-01-29T01:23:24.393Z,10.90
2023-01-29T01:26:12.720Z,10.90
2023-01-29T01:29:01.026Z,10.90
2023-01-29T01:31:49.457Z,10.90
2023-01-29T01:34:37.925Z,11.00
2023-01-29T01:37:26.252Z,10.90
2023-01-29T01:40:19.235Z,11.00
2023-01-29T01:43:07.628Z,10.90
2023-01-29T01:45:56.030Z,10.90
2023-01-29T01:48:45.990Z,10.90
2023-01-29T01:51:38.161Z,10.90
2023-01-29T01:54:30.053Z,10.90
2023-01-29T01:57:25.208Z,10.90
2023-01-29T02:00:17.539Z,10.90
2023-01-29T02:03:24.898Z,10.90
2023-01-29T02:06:30.941Z,10.90
2023-01-29T02:09:33.948Z,10.90
2023-01-29T02:12:24.277Z,10.90
2023-01-29T02:15:12.978Z,10.90
2023-01-29T02:18:01.909Z,10.90
2023-01-29T02:21:02.538Z,10.90
2023-01-29T02:24:16.351Z,10.90
2023-01-29T02:27:11.899Z,10.90
2023-01-29T02:30:07.961Z,10.90
2023-01-29T02:33:07.704Z,10.90
2023-01-29T02:36:02.024Z,10.90
2023-01-29T02:38:57.317Z,10.90
2023-01-29T02:41:55.313Z,10.90
2023-01-29T02:44:49.247Z,10.90
2023-01-29T02:47:43.976Z,11.00
2023-01-29T02:50:35.861Z,10.90
2023-01-29T02:53:28.669Z,10.90
2023-01-29T02:56:20.983Z,11.00
2023-01-29T02:59:13.447Z,10.90
2023-01-29T03:02:07.663Z,10.90
2023-01-29T03:05:04.224Z,10.90
2023-01-29T03:07:58.719Z,10.90
2023-01-29T03:10:52.917Z,10.90
2023-01-29T03:13:46.485Z,10.90
2023-01-29T03:16:37.827Z,10.90
2023-01-29T03:19:34.552Z,11.00
2023-01-29T03:22:24.799Z,11.00
2023-01-29T03:25:33.466Z,10.90
2023-01-29T03:28:41.590Z,10.90
2023-01-29T03:31:50.158Z,10.90
2023-01-29T03:34:43.717Z,11.00
2023-01-29T03:37:37.637Z,10.90
2023-01-29T03:40:26.699Z,10.90
2023-01-29T03:43:25.083Z,10.90
2023-01-29T03:46:21.283Z,10.90
2023-01-29T03:49:19.709Z,10.90
2023-01-29T03:52:17.406Z,10.90
2023-01-29T03:55:15.016Z,11.00
2023-01-29T03:58:10.396Z,10.90
2023-01-29T04:01:03.073Z,10.90
2023-01-29T04:03:57.949Z,10.90
2023-01-29T04:06:49.186Z,10.90
2023-01-29T04:09:41.798Z,10.90
2023-01-29T04:12:37.234Z,10.90
2023-01-29T04:15:30.083Z,10.90
2023-01-29T04:18:18.364Z,10.90
2023-01-29T04:21:08.283Z,10.90
2023-01-29T04:23:56.660Z,10.90
2023-01-29T04:26:59.052Z,10.90
2023-01-29T04:29:58.991Z,10.90
2023-01-29T04:33:01.406Z,10.90
2023-01-29T04:36:07.246Z,10.90
2023-01-29T04:39:06.376Z,10.80
2023-01-29T04:42:00.377Z,10.80
2023-01-29T04:44:55.647Z,10.90
2023-01-29T04:47:52.986Z,10.80
2023-01-29T04:50:48.103Z,10.80
2023-01-29T04:53:42.823Z,10.80
2023-01-29T04:56:36.610Z,10.80
2023-01-29T04:59:31.882Z,10.80
2023-01-29T05:02:24.261Z,10.80
2023-01-29T05:05:15.141Z,10.80
2023-01-29T05:08:05.464Z,10.80
2023-01-29T05:10:55.813Z,10.80
2023-01-29T05:13:44.449Z,10.80
2023-01-29T05:16:42.947Z,10.80
2023-01-29T05:19:32.672Z,10.80
2023-01-29T05:22:22.846Z,10.80
2023-01-29T05:25:23.583Z,10.80
2023-01-29T05:28:16.443Z,10.80
2023-01-29T05:31:04.826Z,10.90
2023-01-29T05:33:53.257Z,10.90
2023-01-29T05:36:42.993Z,10.90
2023-01-29T05:39:31.245Z,10.90
2023-01-29T05:42:19.518Z,10.90
2023-01-29T05:45:09.452Z,10.90
2023-01-29T05:47:58.303Z,10.90
2023-01-29T05:50:46.632Z,10.80
2023-01-29T05:53:36.176Z,10.90
2023-01-29T05:56:25.420Z,10.90
2023-01-29T05:59:13.666Z,10.90
2023-01-29T06:02:02.073Z,10.90
2023-01-29T06:04:52.590Z,10.90
2023-01-29T06:07:45.314Z,10.90
2023-01-29T06:10:35.175Z,10.80
2023-01-29T06:13:23.788Z,10.90
2023-01-29T06:16:14.398Z,10.90
2023-01-29T06:19:02.698Z,10.80
2023-01-29T06:21:50.927Z,10.90
2023-01-29T06:24:39.223Z,10.90
2023-01-29T06:27:28.834Z,10.90
2023-01-29T06:30:17.782Z,10.80
2023-01-29T06:33:06.174Z,10.90
2023-01-29T06:35:58.764Z,10.80
2023-01-29T06:38:47.308Z,11.00
2023-01-29T06:41:36.066Z,11.00
2023-01-29T06:44:25.863Z,10.90
2023-01-29T06:47:14.880Z,10.90
2023-01-29T06:50:04.054Z,10.90
2023-01-29T06:52:52.342Z,10.90
2023-01-29T06:55:40.957Z,10.90
2023-01-29T06:58:29.319Z,11.00
2023-01-29T07:01:34.622Z,11.00
2023-01-29T07:04:23.662Z,11.00
2023-01-29T07:07:13.436Z,11.00
2023-01-29T07:10:01.808Z,11.00
2023-01-29T07:12:50.043Z,11.00
2023-01-29T07:15:38.281Z,11.00
2023-01-29T07:18:28.244Z,11.00
2023-01-29T07:21:16.506Z,10.90
2023-01-29T07:24:05.134Z,11.00
2023-01-29T07:26:53.900Z,10.90
2023-01-29T07:29:42.060Z,10.90
2023-01-29T07:32:30.434Z,11.00
2023-01-29T07:35:20.214Z,10.90
2023-01-29T07:38:08.883Z,10.90
2023-01-29T07:40:57.076Z,10.90
2023-01-29T07:43:45.507Z,10.90
2023-01-29T07:46:33.741Z,10.90
2023-01-29T07:49:22.003Z,10.90
2023-01-29T07:52:11.718Z,10.90
2023-01-29T07:55:00.145Z,10.90
2023-01-29T07:57:48.492Z,10.90
2023-01-29T08:00:36.833Z,10.90
2023-01-29T08:03:25.237Z,10.90
2023-01-29T08:06:13.587Z,10.90
2023-01-29T08:09:03.863Z,10.90
2023-01-29T08:11:52.162Z,10.80
2023-01-29T08:14:40.460Z,10.90
2023-01-29T08:17:28.918Z,10.90
2023-01-29T08:20:17.710Z,10.90
2023-01-29T08:23:07.943Z,10.90
2023-01-29T08:25:57.654Z,10.90
2023-01-29T08:28:46.177Z,10.90
2023-01-29T08:31:35.219Z,11.00
2023-01-29T08:34:23.745Z,11.00
2023-01-29T08:37:12.028Z,11.00
2023-01-29T08:40:00.441Z,11.00
2023-01-29T08:42:50.461Z,11.00
2023-01-29T08:45:42.044Z,11.00
2023-01-29T08:48:30.491Z,11.00
2023-01-29T08:51:18.820Z,11.00
2023-01-29T08:54:07.204Z,11.00
2023-01-29T08:56:55.497Z,11.00
2023-01-29T08:59:45.173Z,11.00
2023-01-29T09:02:33.520Z,11.00
2023-01-29T09:05:21.989Z,11.00
2023-01-29T09:08:11.250Z,11.10
2023-01-29T09:11:00.725Z,11.10
2023-01-29T09:13:49.158Z,11.10
2023-01-29T09:16:38.947Z,11.20
2023-01-29T09:19:27.315Z,11.20
2023-01-29T09:22:15.609Z,11.20
2023-01-29T09:25:04.315Z,11.60
2023-01-29T09:27:52.625Z,12.00
2023-01-29T09:30:41.087Z,12.20
2023-01-29T09:33:31.034Z,12.20
2023-01-29T09:36:19.610Z,12.20
2023-01-29T09:39:08.017Z,12.10
2023-01-29T09:42:04.867Z,12.00
2023-01-29T09:45:01.001Z,12.00
2023-01-29T09:47:49.858Z,12.00
2023-01-29T09:50:42.829Z,11.90
2023-01-29T09:53:37.824Z,11.90
2023-01-29T09:56:29.086Z,11.90
2023-01-29T09:59:24.958Z,11.90
2023-01-29T10:02:34.352Z,11.90
2023-01-29T10:05:41.153Z,11.90
2023-01-29T10:08:48.671Z,11.80
2023-01-29T10:11:46.504Z,11.90
2023-01-29T10:14:39.167Z,12.00
2023-01-29T10:17:41.627Z,12.10
2023-01-29T10:20:44.450Z,12.10
2023-01-29T10:29:47.640Z,12.20
2023-01-29T10:32:38.086Z,12.30
2023-01-29T10:35:30.951Z,12.50
2023-01-29T10:38:30.888Z,12.80
2023-01-29T10:41:28.418Z,12.80
2023-01-29T10:44:26.462Z,12.80
2023-01-29T10:47:59.804Z,12.90
2023-01-29T10:50:51.918Z,12.90
2023-01-29T10:53:49.812Z,12.90
2023-01-29T10:56:55.887Z,12.90
2023-01-29T10:59:59.635Z,12.90
2023-01-29T11:02:50.438Z,12.90
2023-01-29T11:05:52.862Z,13.00
2023-01-29T11:08:47.212Z,13.00
2023-01-29T11:11:40.645Z,13.00
2023-01-29T11:14:34.543Z,13.00
2023-01-29T11:17:24.980Z,13.00
2023-01-29T11:20:28.714Z,13.00
2023-01-29T11:23:28.359Z,13.00
2023-01-29T11:26:22.404Z,13.00
2023-01-29T11:29:30.799Z,13.00
2023-01-29T11:32:27.619Z,13.10
2023-01-29T11:35:24.096Z,13.00
2023-01-29T11:38:22.420Z,13.00
2023-01-29T11:41:22.303Z,13.00
2023-01-29T11:44:19.991Z,13.10
2023-01-29T11:47:20.200Z,13.00
2023-01-29T11:50:21.270Z,13.00
2023-01-29T11:53:24.917Z,13.00
2023-01-29T11:56:36.854Z,13.00
2023-01-29T11:59:38.899Z,13.00
2023-01-29T12:02:31.832Z,13.00
2023-01-29T12:05:23.541Z,13.00
2023-01-29T12:08:18.216Z,13.00
2023-01-29T12:11:11.867Z,13.00
2023-01-29T12:14:02.820Z,13.00
2023-01-29T12:16:56.197Z,13.00
2023-01-29T12:19:50.033Z,13.00
2023-01-29T12:22:44.113Z,13.00
2023-01-29T12:25:42.657Z,13.00
2023-01-29T12:28:40.074Z,13.00
2023-01-29T12:31:36.328Z,13.00
2023-01-29T12:34:33.640Z,13.00
2023-01-29T12:37:26.093Z,13.00
2023-01-29T12:40:16.927Z,13.00
2023-01-29T12:43:13.748Z,13.00
2023-01-29T12:46:03.288Z,13.00
2023-01-29T12:48:55.846Z,12.90
2023-01-29T12:51:50.973Z,12.90
2023-01-29T12:54:43.479Z,12.90
2023-01-29T12:57:41.164Z,12.90
2023-01-29T13:00:33.381Z,12.90
2023-01-29T13:03:30.948Z,12.80
2023-01-29T13:06:24.730Z,12.80
2023-01-29T13:09:16.670Z,12.80
2023-01-29T13:12:10.303Z,12.80
2023-01-29T13:15:01.607Z,12.80
2023-01-29T13:17:54.216Z,12.80
2023-01-29T13:20:44.636Z,12.70
2023-01-29T13:23:38.712Z,12.70
2023-01-29T13:26:28.171Z,12.70
2023-01-29T13:29:24.264Z,12.70
2023-01-29T13:32:12.671Z,12.60
2023-01-29T13:35:03.867Z,12.60
2023-01-29T13:37:54.933Z,12.60
2023-01-29T13:40:51.165Z,12.60
2023-01-29T13:43:42.854Z,12.50
2023-01-29T13:46:33.131Z,12.50
2023-01-29T13:49:36.440Z,12.50
2023-01-29T13:52:35.504Z,12.50
2023-01-29T13:55:31.437Z,12.40
2023-01-29T13:58:54.356Z,12.40
2023-01-29T14:02:05.016Z,12.40
2023-01-29T14:04:55.250Z,12.30
2023-01-29T14:07:52.147Z,12.30
2023-01-29T14:10:40.989Z,12.30
2023-01-29T14:13:36.593Z,12.30
2023-01-29T14:16:36.206Z,12.20
2023-01-29T14:19:26.091Z,12.20
2023-01-29T14:22:21.718Z,12.20
2023-01-29T14:25:20.125Z,12.20
2023-01-29T14:28:21.441Z,12.20
2023-01-29T14:31:12.234Z,12.20
2023-01-29T14:34:05.988Z,12.20
2023-01-29T14:36:56.776Z,12.20
2023-01-29T14:39:46.172Z,12.20
2023-01-29T14:42:38.757Z,12.20
2023-01-29T14:45:29.786Z,12.10
2023-01-29T14:48:39.057Z,12.10
2023-01-29T14:51:30.920Z,12.10
2023-01-29T14:54:26.396Z,12.00
2023-01-29T14:57:18.110Z,12.00
2023-01-29T15:00:09.660Z,12.00
2023-01-29T15:03:01.905Z,12.00
2023-01-29T15:05:54.212Z,12.00
2023-01-29T15:08:48.046Z,11.90
2023-01-29T15:11:45.528Z,11.90
2023-01-29T15:14:36.868Z,11.90
2023-01-29T15:17:30.087Z,11.90
2023-01-29T15:20:29.865Z,11.80
2023-01-29T15:23:30.628Z,11.80
2023-01-29T15:26:21.676Z,11.80
2023-01-29T15:29:24.728Z,11.80
2023-01-29T15:32:20.564Z,11.80
2023-01-29T15:35:11.186Z,11.80
2023-01-29T15:38:01.653Z,11.70
2023-01-29T15:40:56.662Z,11.70
2023-01-29T15:43:46.898Z,11.70
2023-01-29T15:46:37.491Z,11.70
2023-01-29T15:49:31.985Z,11.70
2023-01-29T15:52:23.846Z,11.70
2023-01-29T15:55:16.072Z,11.60
2023-01-29T15:58:06.178Z,11.60
2023-01-29T16:00:56.876Z,11.60
2023-01-29T16:03:46.318Z,11.60
2023-01-29T16:06:40.997Z,11.60
2023-01-29T16:09:30.722Z,11.60
2023-01-29T16:12:19.569Z,11.60
2023-01-29T16:15:21.377Z,11.50
2023-01-29T16:18:24.056Z,11.50
2023-01-29T16:21:17.186Z,11.50
2023-01-29T16:24:11.921Z,11.50
2023-01-29T16:27:02.302Z,11.50
2023-01-29T16:29:50.697Z,11.50
2023-01-29T16:32:40.547Z,11.50
2023-01-29T16:35:29.009Z,11.50
2023-01-29T16:38:27.940Z,11.50
2023-01-29T16:41:31.007Z,11.40
2023-01-29T16:44:33.835Z,11.40
2023-01-29T16:47:32.394Z,11.40
2023-01-29T16:50:40.728Z,11.40
2023-01-29T16:53:37.147Z,11.40
2023-01-29T16:56:27.534Z,11.40
2023-01-29T16:59:21.771Z,11.40
2023-01-29T17:02:21.454Z,11.30
2023-01-29T17:05:18.896Z,11.40
2023-01-29T17:08:09.334Z,11.40
2023-01-29T17:10:57.770Z,11.30
2023-01-29T17:13:47.192Z,11.30
2023-01-29T17:16:37.630Z,11.30
2023-01-29T17:19:26.100Z,11.30
2023-01-29T17:22:15.276Z,11.30
2023-01-29T17:25:05.410Z,11.30
2023-01-29T17:27:53.809Z,11.30
2023-01-29T17:30:44.704Z,11.30
2023-01-29T17:33:33.282Z,11.30
2023-01-29T17:36:21.466Z,11.30
2023-01-29T17:39:17.206Z,11.30
2023-01-29T17:42:07.097Z,11.30
2023-01-29T17:44:55.459Z,11.30
2023-01-29T17:47:43.775Z,11.20
2023-01-29T17:50:33.461Z,11.20
2023-01-29T17:53:23.611Z,11.20
2023-01-29T17:56:16.844Z,11.20
2023-01-29T17:59:13.850Z,11.20
2023-01-29T18:02:02.259Z,11.20
2023-01-29T18:04:51.146Z,11.20
2023-01-29T18:07:40.051Z,11.20
2023-01-29T18:10:28.579Z,11.20
2023-01-29T18:13:16.938Z,11.20
2023-01-29T18:16:07.160Z,11.20
2023-01-29T18:18:55.500Z,11.10
2023-01-29T18:21:43.871Z,11.10
2023-01-29T18:24:32.058Z,11.10
2023-01-29T18:27:20.556Z,11.10
2023-01-29T18:30:10.382Z,11.10
2023-01-29T18:33:00.376Z,11.10
2023-01-29T18:35:49.483Z,11.10
2023-01-29T18:38:37.774Z,11.10
2023-01-29T18:41:26.257Z,11.10
2023-01-29T18:44:14.632Z,11.10
2023-01-29T18:47:02.787Z,11.10
2023-01-29T18:49:52.447Z,11.10
2023-01-29T18:52:41.419Z,11.10
2023-01-29T18:55:29.684Z,11.00
2023-01-29T18:58:26.830Z,11.00
2023-01-29T19:01:23.772Z,11.00
2023-01-29T19:04:12.117Z,11.10
2023-01-29T19:07:01.799Z,11.10
2023-01-29T19:09:50.610Z,11.00
2023-01-29T19:12:40.499Z,11.10
2023-01-29T19:15:29.052Z,11.00
2023-01-29T19:18:17.367Z,11.10
2023-01-29T19:21:08.818Z,11.00
2023-01-29T19:23:58.572Z,11.00
2023-01-29T19:26:46.932Z,11.00
2023-01-29T19:29:35.496Z,11.00
2023-01-29T19:32:23.899Z,11.00
2023-01-29T19:35:12.347Z,11.00
2023-01-29T19:38:01.056Z,11.00
2023-01-29T19:40:51.029Z,11.00
2023-01-29T19:43:42.022Z,11.00
2023-01-29T19:46:30.375Z,10.90
2023-01-29T19:49:18.733Z,10.90
2023-01-29T19:52:10.828Z,10.90
2023-01-29T19:54:59.162Z,10.90
2023-01-29T19:57:48.906Z,10.90
2023-01-29T20:00:37.384Z,10.90
2023-01-29T20:03:26.077Z,10.90
2023-01-29T20:06:15.590Z,10.90
2023-01-29T20:09:05.140Z,10.90
2023-01-29T20:11:53.563Z,10.90
2023-01-29T20:14:48.774Z,10.90
2023-01-29T20:17:37.056Z,10.90
2023-01-29T20:20:31.045Z,10.80
2023-01-29T20:23:36.621Z,10.90
2023-01-29T20:26:25.687Z,10.80
2023-01-29T20:29:15.405Z,10.80
2023-01-29T20:32:05.396Z,10.80
2023-01-29T20:34:53.733Z,10.80
2023-01-29T20:37:42.034Z,10.80
2023-01-29T20:40:30.847Z,10.80
2023-01-29T20:43:19.103Z,10.80
2023-01-29T20:46:09.197Z,10.80
2023-01-29T20:48:59.024Z,10.80
2023-01-29T20:51:47.317Z,10.80
2023-01-29T20:54:35.650Z,10.80
2023-01-29T20:57:23.994Z,10.80
2023-01-29T21:00:15.543Z,10.80
2023-01-29T21:03:04.225Z,10.70
2023-01-29T21:05:54.410Z,10.80
2023-01-29T21:08:44.035Z,10.70
2023-01-29T21:11:33.507Z,10.80
2023-01-29T21:14:21.707Z,10.70
2023-01-29T21:17:10.001Z,10.70
2023-01-29T21:19:58.171Z,10.70
2023-01-29T21:22:49.165Z,10.70
2023-01-29T21:25:38.673Z,10.70
2023-01-29T21:28:26.963Z,10.70
2023-01-29T21:31:16.929Z,10.70
2023-01-29T21:34:05.654Z,10.70
2023-01-29T21:36:54.023Z,10.70
2023-01-29T21:39:44.764Z,10.70
2023-01-29T21:42:50.839Z,10.70
2023-01-29T21:45:39.479Z,10.70
2023-01-29T21:48:28.502Z,10.70
2023-01-29T21:51:18.811Z,10.70
2023-01-29T21:54:07.260Z,10.60
2023-01-29T21:56:56.854Z,10.60
2023-01-29T21:59:53.167Z,10.60
2023-01-29T22:02:42.116Z,10.60
2023-01-29T22:05:30.563Z,10.70
2023-01-29T22:08:20.587Z,10.60
2023-01-29T22:11:09.467Z,10.60
2023-01-29T22:13:59.533Z,10.60
2023-01-29T22:16:47.782Z,10.60
2023-01-29T22:19:36.093Z,10.60
2023-01-29T22:22:24.298Z,10.60
2023-01-29T22:25:13.090Z,10.70
2023-01-29T22:28:01.311Z,10.60
2023-01-29T22:30:51.053Z,10.60
2023-01-29T22:33:39.444Z,10.60
2023-01-29T22:36:27.648Z,10.60
2023-01-29T22:39:16.008Z,10.60
2023-01-29T22:42:04.398Z,10.60
2023-01-29T22:44:52.717Z,10.60
2023-01-29T22:47:42.288Z,10.60
2023-01-29T22:50:30.592Z,10.60
2023-01-29T22:53:18.823Z,10.50
2023-01-29T22:56:08.260Z,10.60
2023-01-29T22:58:57.693Z,10.60
2023-01-29T23:01:46.143Z,10.60
2023-01-29T23:04:35.831Z,10.50
2023-01-29T23:07:24.183Z,10.50
2023-01-29T23:10:14.434Z,10.50
2023-01-29T23:13:02.958Z,10.50
2023-01-29T23:15:59.830Z,10.50
2023-01-29T23:18:51.710Z,10.50
2023-01-29T23:21:41.375Z,10.50
2023-01-29T23:24:29.691Z,10.50
2023-01-29T23:27:17.335Z,10.50
2023-01-29T23:30:07.645Z,10.50
2023-01-29T23:32:56.033Z,10.50
2023-01-29T23:35:44.315Z,10.50
2023-01-29T23:38:34.269Z,10.50
2023-01-29T23:41:22.514Z,10.50
2023-01-29T23:44:10.781Z,10.50
2023-01-29T23:46:59.201Z,10.60
2023-01-29T23:49:47.622Z,10.60
2023-01-29T23:52:35.827Z,10.50
2023-01-29T23:55:25.530Z,10.50
2023-01-29T23:58:13.931Z,10.50
